sensor_id;sensor_type;location;lat;lon;timestamp;pressure;altitude;pressure_sealevel;temperature;humidity
21520;BME280;10921;53.614;9.882;2023-02-17T00:02:13;101373.13;;;10.29;100.00
21520;BME280;10921;53.614;9.882;2023-02-17T00:04:41;101379.19;;;10.31;100.00
21520;BME280;10921;53.614;9.882;2023-02-17T00:07:07;101376.28;;;10.34;100.00
21520;BME280;10921;53.614;9.882;2023-02-17T00:09:35;101321.78;;;10.05;100.00
21520;BME280;10921;53.614;9.882;2023-02-17T00:12:02;101361.22;;;10.33;100.00
21520;BME280;10921;53.614;9.882;2023-02-17T00:14:28;101375.50;;;10.43;100.00
21520;BME280;10921;53.614;9.882;2023-02-17T00:16:55;101370.88;;;10.45;100.00
21520;BME280;10921;53.614;9.882;2023-02-17T00:19:21;101354.41;;;10.40;100.00
21520;BME280;10921;53.614;9.882;2023-02-17T00:24:22;101355.72;;;10.46;100.00
21520;BME280;10921;53.614;9.882;2023-02-17T00:26:49;101342.88;;;10.40;100.00
21520;BME280;10921;53.614;9.882;2023-02-17T00:29:15;101338.13;;;10.43;100.00
21520;BME280;10921;53.614;9.882;2023-02-17T00:31:43;101366.88;;;10.51;100.00
21520;BME280;10921;53.614;9.882;2023-02-17T00:34:10;101359.84;;;10.50;100.00
21520;BME280;10921;53.614;9.882;2023-02-17T00:36:37;101354.25;;;10.53;100.00
21520;BME280;10921;53.614;9.882;2023-02-17T00:39:05;101359.91;;;10.60;100.00
21520;BME280;10921;53.614;9.882;2023-02-17T00:41:32;101356.63;;;10.56;100.00
21520;BME280;10921;53.614;9.882;2023-02-17T00:43:59;101359.28;;;10.56;100.00
21520;BME280;10921;53.614;9.882;2023-02-17T00:46:26;101373.13;;;10.61;100.00
21520;BME280;10921;53.614;9.882;2023-02-17T00:48:53;101355.41;;;10.60;100.00
21520;BME280;10921;53.614;9.882;2023-02-17T00:51:19;101341.88;;;10.52;100.00
21520;BME280;10921;53.614;9.882;2023-02-17T00:53:46;101355.75;;;10.67;100.00
21520;BME280;10921;53.614;9.882;2023-02-17T00:56:13;101299.50;;;10.38;100.00
21520;BME280;10921;53.614;9.882;2023-02-17T00:58:40;101354.78;;;10.68;100.00
21520;BME280;10921;53.614;9.882;2023-02-17T01:01:07;101353.63;;;10.70;100.00
21520;BME280;10921;53.614;9.882;2023-02-17T01:03:34;101344.94;;;10.68;100.00
21520;BME280;10921;53.614;9.882;2023-02-17T01:06:05;101346.78;;;10.68;100.00
21520;BME280;10921;53.614;9.882;2023-02-17T01:08:32;101340.88;;;10.74;100.00
21520;BME280;10921;53.614;9.882;2023-02-17T01:10:59;101319.63;;;10.63;100.00
21520;BME280;10921;53.614;9.882;2023-02-17T01:13:26;101296.38;;;10.53;100.00
21520;BME280;10921;53.614;9.882;2023-02-17T01:15:53;101308.56;;;10.67;100.00
21520;BME280;10921;53.614;9.882;2023-02-17T01:18:22;101324.38;;;10.80;100.00
21520;BME280;10921;53.614;9.882;2023-02-17T01:20:49;101290.38;;;10.61;100.00
21520;BME280;10921;53.614;9.882;2023-02-17T01:23:16;101307.25;;;10.82;100.00
21520;BME280;10921;53.614;9.882;2023-02-17T01:25:45;101328.59;;;10.82;100.00
21520;BME280;10921;53.614;9.882;2023-02-17T01:28:15;101317.78;;;10.84;100.00
21520;BME280;10921;53.614;9.882;2023-02-17T01:30:42;101316.22;;;10.81;100.00
21520;BME280;10921;53.614;9.882;2023-02-17T01:33:09;101300.22;;;10.81;100.00
21520;BME280;10921;53.614;9.882;2023-02-17T01:35:36;101298.94;;;10.85;100.00
21520;BME280;10921;53.614;9.882;2023-02-17T01:38:02;101289.66;;;10.80;100.00
21520;BME280;10921;53.614;9.882;2023-02-17T01:40:28;101290.09;;;10.85;100.00
21520;BME280;10921;53.614;9.882;2023-02-17T01:42:55;101279.09;;;10.78;100.00
21520;BME280;10921;53.614;9.882;2023-02-17T01:48:09;101285.91;;;10.92;100.00
21520;BME280;10921;53.614;9.882;2023-02-17T01:50:43;101275.25;;;10.92;100.00
21520;BME280;10921;53.614;9.882;2023-02-17T01:53:13;101266.78;;;10.87;100.00
21520;BME280;10921;53.614;9.882;2023-02-17T01:55:41;101239.47;;;10.74;100.00
21520;BME280;10921;53.614;9.882;2023-02-17T01:58:13;101264.31;;;10.95;100.00
21520;BME280;10921;53.614;9.882;2023-02-17T02:00:41;101265.28;;;10.94;100.00
21520;BME280;10921;53.614;9.882;2023-02-17T02:03:12;101261.38;;;10.98;100.00
21520;BME280;10921;53.614;9.882;2023-02-17T02:05:42;101255.91;;;11.00;100.00
21520;BME280;10921;53.614;9.882;2023-02-17T02:08:10;101232.84;;;10.99;100.00
21520;BME280;10921;53.614;9.882;2023-02-17T02:10:37;101230.00;;;11.00;100.00
21520;BME280;10921;53.614;9.882;2023-02-17T02:13:04;101191.75;;;10.80;100.00
21520;BME280;10921;53.614;9.882;2023-02-17T02:15:37;101218.50;;;11.00;100.00
21520;BME280;10921;53.614;9.882;2023-02-17T02:18:29;101216.53;;;11.02;100.00
21520;BME280;10921;53.614;9.882;2023-02-17T02:23:53;101215.28;;;11.06;100.00
21520;BME280;10921;53.614;9.882;2023-02-17T02:35:02;101196.59;;;11.15;100.00
21520;BME280;10921;53.614;9.882;2023-02-17T02:37:46;101159.06;;;10.98;100.00
21520;BME280;10921;53.614;9.882;2023-02-17T02:40:16;101170.59;;;10.98;100.00
21520;BME280;10921;53.614;9.882;2023-02-17T02:42:45;101197.44;;;11.16;100.00
21520;BME280;10921;53.614;9.882;2023-02-17T02:45:12;101196.34;;;11.18;100.00
21520;BME280;10921;53.614;9.882;2023-02-17T02:47:43;101201.28;;;11.23;100.00
21520;BME280;10921;53.614;9.882;2023-02-17T02:50:22;101193.53;;;11.20;100.00
21520;BME280;10921;53.614;9.882;2023-02-17T02:58:57;101173.31;;;11.27;100.00
21520;BME280;10921;53.614;9.882;2023-02-17T03:06:52;101183.31;;;11.35;100.00
21520;BME280;10921;53.614;9.882;2023-02-17T03:09:24;101175.41;;;11.33;100.00
21520;BME280;10921;53.614;9.882;2023-02-17T03:11:52;101180.50;;;11.36;100.00
21520;BME280;10921;53.614;9.882;2023-02-17T03:14:20;101168.97;;;11.36;100.00
21520;BME280;10921;53.614;9.882;2023-02-17T03:16:48;101161.78;;;11.36;100.00
21520;BME280;10921;53.614;9.882;2023-02-17T03:19:18;101150.13;;;11.37;100.00
21520;BME280;10921;53.614;9.882;2023-02-17T03:24:14;101143.81;;;11.38;100.00
21520;BME280;10921;53.614;9.882;2023-02-17T03:26:41;101143.66;;;11.40;100.00
21520;BME280;10921;53.614;9.882;2023-02-17T03:29:07;101139.44;;;11.37;100.00
21520;BME280;10921;53.614;9.882;2023-02-17T03:31:34;101141.56;;;11.43;100.00
21520;BME280;10921;53.614;9.882;2023-02-17T03:34:01;101140.59;;;11.44;100.00
21520;BME280;10921;53.614;9.882;2023-02-17T03:36:28;101141.44;;;11.45;100.00
21520;BME280;10921;53.614;9.882;2023-02-17T03:38:55;101085.44;;;11.14;100.00
21520;BME280;10921;53.614;9.882;2023-02-17T03:41:22;101147.03;;;11.42;100.00
21520;BME280;10921;53.614;9.882;2023-02-17T03:43:49;101130.88;;;11.43;100.00
21520;BME280;10921;53.614;9.882;2023-02-17T03:46:16;101123.13;;;11.40;100.00
21520;BME280;10921;53.614;9.882;2023-02-17T03:48:43;101118.06;;;11.37;100.00
21520;BME280;10921;53.614;9.882;2023-02-17T03:51:15;101125.09;;;11.48;100.00
21520;BME280;10921;53.614;9.882;2023-02-17T03:53:43;101118.75;;;11.49;100.00
21520;BME280;10921;53.614;9.882;2023-02-17T03:56:11;101123.97;;;11.50;100.00
21520;BME280;10921;53.614;9.882;2023-02-17T03:58:39;101109.19;;;11.46;100.00
21520;BME280;10921;53.614;9.882;2023-02-17T04:01:07;101116.94;;;11.49;100.00
21520;BME280;10921;53.614;9.882;2023-02-17T04:03:34;101080.94;;;11.34;100.00
21520;BME280;10921;53.614;9.882;2023-02-17T04:06:01;101106.69;;;11.54;100.00
21520;BME280;10921;53.614;9.882;2023-02-17T04:08:28;101097.94;;;11.52;100.00
21520;BME280;10921;53.614;9.882;2023-02-17T04:10:58;101064.75;;;11.36;100.00
21520;BME280;10921;53.614;9.882;2023-02-17T04:13:25;101106.53;;;11.56;100.00
21520;BME280;10921;53.614;9.882;2023-02-17T04:15:52;101111.75;;;11.57;100.00
21520;BME280;10921;53.614;9.882;2023-02-17T04:18:19;101108.09;;;11.58;100.00
21520;BME280;10921;53.614;9.882;2023-02-17T04:20:50;101111.75;;;11.57;100.00
21520;BME280;10921;53.614;9.882;2023-02-17T04:23:17;101080.53;;;11.39;100.00
21520;BME280;10921;53.614;9.882;2023-02-17T04:25:44;101113.81;;;11.63;100.00
21520;BME280;10921;53.614;9.882;2023-02-17T04:28:12;101093.44;;;11.62;100.00
21520;BME280;10921;53.614;9.882;2023-02-17T04:30:41;101094.13;;;11.64;100.00
21520;BME280;10921;53.614;9.882;2023-02-17T04:33:07;101091.47;;;11.64;100.00
21520;BME280;10921;53.614;9.882;2023-02-17T04:35:33;101091.31;;;11.66;100.00
21520;BME280;10921;53.614;9.882;2023-02-17T04:38:00;101095.53;;;11.69;100.00
21520;BME280;10921;53.614;9.882;2023-02-17T04:40:26;101081.63;;;11.65;100.00
21520;BME280;10921;53.614;9.882;2023-02-17T04:42:53;101088.09;;;11.72;100.00
21520;BME280;10921;53.614;9.882;2023-02-17T04:45:20;101082.19;;;11.69;100.00
21520;BME280;10921;53.614;9.882;2023-02-17T04:47:47;101099.06;;;11.69;100.00
21520;BME280;10921;53.614;9.882;2023-02-17T04:50:14;101073.03;;;11.61;100.00
21520;BME280;10921;53.614;9.882;2023-02-17T04:52:41;101060.81;;;11.49;100.00
21520;BME280;10921;53.614;9.882;2023-02-17T04:55:07;101067.69;;;11.61;100.00
21520;BME280;10921;53.614;9.882;2023-02-17T04:57:34;101077.69;;;11.69;100.00
21520;BME280;10921;53.614;9.882;2023-02-17T05:00:02;101085.00;;;11.77;100.00
21520;BME280;10921;53.614;9.882;2023-02-17T05:02:30;101045.47;;;11.51;100.00
21520;BME280;10921;53.614;9.882;2023-02-17T05:04:56;101083.16;;;11.77;100.00
21520;BME280;10921;53.614;9.882;2023-02-17T05:07:23;101061.09;;;11.75;100.00
21520;BME280;10921;53.614;9.882;2023-02-17T05:09:49;101059.13;;;11.77;100.00
21520;BME280;10921;53.614;9.882;2023-02-17T05:12:16;101048.28;;;11.69;100.00
21520;BME280;10921;53.614;9.882;2023-02-17T05:14:42;101058.13;;;11.78;100.00
21520;BME280;10921;53.614;9.882;2023-02-17T05:17:09;100989.50;;;11.50;100.00
21520;BME280;10921;53.614;9.882;2023-02-17T05:19:35;101044.63;;;11.80;100.00
21520;BME280;10921;53.614;9.882;2023-02-17T05:22:02;101046.59;;;11.78;100.00
21520;BME280;10921;53.614;9.882;2023-02-17T05:24:28;101038.00;;;11.74;100.00
21520;BME280;10921;53.614;9.882;2023-02-17T05:26:55;101043.91;;;11.78;100.00
21520;BME280;10921;53.614;9.882;2023-02-17T05:29:21;101034.91;;;11.79;100.00
21520;BME280;10921;53.614;9.882;2023-02-17T05:31:49;101037.03;;;11.75;100.00
21520;BME280;10921;53.614;9.882;2023-02-17T05:34:15;100993.31;;;11.57;100.00
21520;BME280;10921;53.614;9.882;2023-02-17T05:36:42;101032.78;;;11.82;100.00
21520;BME280;10921;53.614;9.882;2023-02-17T05:39:08;101013.25;;;11.82;100.00
21520;BME280;10921;53.614;9.882;2023-02-17T05:41:35;100969.41;;;11.46;100.00
21520;BME280;10921;53.614;9.882;2023-02-17T05:44:01;100990.16;;;11.81;100.00
21520;BME280;10921;53.614;9.882;2023-02-17T05:46:28;101005.34;;;11.80;100.00
21520;BME280;10921;53.614;9.882;2023-02-17T05:48:54;100988.47;;;11.80;100.00
21520;BME280;10921;53.614;9.882;2023-02-17T05:51:21;100987.78;;;11.78;100.00
21520;BME280;10921;53.614;9.882;2023-02-17T05:53:47;100991.00;;;11.81;100.00
21520;BME280;10921;53.614;9.882;2023-02-17T05:56:14;100986.50;;;11.82;100.00
21520;BME280;10921;53.614;9.882;2023-02-17T05:58:40;100981.00;;;11.83;100.00
21520;BME280;10921;53.614;9.882;2023-02-17T06:01:08;100987.47;;;11.81;100.00
21520;BME280;10921;53.614;9.882;2023-02-17T06:03:36;100991.16;;;11.80;100.00
21520;BME280;10921;53.614;9.882;2023-02-17T06:06:03;100944.50;;;11.55;100.00
21520;BME280;10921;53.614;9.882;2023-02-17T06:08:31;100985.09;;;11.78;100.00
21520;BME280;10921;53.614;9.882;2023-02-17T06:10:57;100965.41;;;11.69;100.00
21520;BME280;10921;53.614;9.882;2023-02-17T06:13:24;100976.09;;;11.79;100.00
21520;BME280;10921;53.614;9.882;2023-02-17T06:15:50;100963.28;;;11.73;100.00
21520;BME280;10921;53.614;9.882;2023-02-17T06:18:18;100961.75;;;11.80;100.00
21520;BME280;10921;53.614;9.882;2023-02-17T06:20:45;100938.53;;;11.71;100.00
21520;BME280;10921;53.614;9.882;2023-02-17T06:23:11;100942.63;;;11.75;100.00
21520;BME280;10921;53.614;9.882;2023-02-17T06:25:37;100944.00;;;11.79;100.00
21520;BME280;10921;53.614;9.882;2023-02-17T06:28:04;100939.81;;;11.76;100.00
21520;BME280;10921;53.614;9.882;2023-02-17T06:30:31;100937.69;;;11.80;100.00
21520;BME280;10921;53.614;9.882;2023-02-17T06:32:57;100927.16;;;11.69;100.00
21520;BME280;10921;53.614;9.882;2023-02-17T06:35:24;100905.31;;;11.73;100.00
21520;BME280;10921;53.614;9.882;2023-02-17T06:37:51;100915.03;;;11.74;100.00
21520;BME280;10921;53.614;9.882;2023-02-17T06:40:18;100917.41;;;11.77;100.00
21520;BME280;10921;53.614;9.882;2023-02-17T06:42:45;100908.56;;;11.67;100.00
21520;BME280;10921;53.614;9.882;2023-02-17T06:45:11;100910.41;;;11.76;100.00
21520;BME280;10921;53.614;9.882;2023-02-17T06:47:38;100878.25;;;11.58;100.00
21520;BME280;10921;53.614;9.882;2023-02-17T06:50:05;100906.16;;;11.74;100.00
21520;BME280;10921;53.614;9.882;2023-02-17T06:52:32;100910.53;;;11.75;100.00
21520;BME280;10921;53.614;9.882;2023-02-17T06:54:59;100898.28;;;11.72;100.00
21520;BME280;10921;53.614;9.882;2023-02-17T06:57:25;100839.06;;;11.40;100.00
21520;BME280;10921;53.614;9.882;2023-02-17T06:59:52;100833.72;;;11.40;100.00
21520;BME280;10921;53.614;9.882;2023-02-17T07:02:19;100889.03;;;11.76;100.00
21520;BME280;10921;53.614;9.882;2023-02-17T07:04:45;100848.00;;;11.58;100.00
21520;BME280;10921;53.614;9.882;2023-02-17T07:07:12;100861.72;;;11.73;100.00
21520;BME280;10921;53.614;9.882;2023-02-17T07:09:39;100873.41;;;11.72;100.00
21520;BME280;10921;53.614;9.882;2023-02-17T07:12:06;100864.53;;;11.71;100.00
21520;BME280;10921;53.614;9.882;2023-02-17T07:14:33;100877.19;;;11.79;100.00
21520;BME280;10921;53.614;9.882;2023-02-17T07:17:00;100828.88;;;11.53;100.00
21520;BME280;10921;53.614;9.882;2023-02-17T07:19:26;100829.72;;;11.53;100.00
21520;BME280;10921;53.614;9.882;2023-02-17T07:21:53;100867.47;;;11.78;100.00
21520;BME280;10921;53.614;9.882;2023-02-17T07:24:20;100877.59;;;11.74;100.00
21520;BME280;10921;53.614;9.882;2023-02-17T07:26:47;100843.09;;;11.53;100.00
21520;BME280;10921;53.614;9.882;2023-02-17T07:29:13;100875.78;;;11.75;100.00
21520;BME280;10921;53.614;9.882;2023-02-17T07:31:40;100852.56;;;11.75;100.00
21520;BME280;10921;53.614;9.882;2023-02-17T07:34:06;100865.78;;;11.77;100.00
21520;BME280;10921;53.614;9.882;2023-02-17T07:36:33;100869.47;;;11.76;100.00
21520;BME280;10921;53.614;9.882;2023-02-17T07:39:01;100865.78;;;11.77;100.00
21520;BME280;10921;53.614;9.882;2023-02-17T07:41:27;100827.84;;;11.63;100.00
21520;BME280;10921;53.614;9.882;2023-02-17T07:43:56;100844.00;;;11.72;100.00
21520;BME280;10921;53.614;9.882;2023-02-17T07:46:23;100854.53;;;11.73;100.00
21520;BME280;10921;53.614;9.882;2023-02-17T07:48:49;100854.66;;;11.81;100.00
21520;BME280;10921;53.614;9.882;2023-02-17T07:51:19;100846.66;;;11.72;100.00
21520;BME280;10921;53.614;9.882;2023-02-17T07:53:47;100866.19;;;11.82;100.00
21520;BME280;10921;53.614;9.882;2023-02-17T07:56:15;100849.44;;;11.80;99.77
21520;BME280;10921;53.614;9.882;2023-02-17T07:58:43;100829.75;;;11.81;99.60
21520;BME280;10921;53.614;9.882;2023-02-17T08:01:11;100837.63;;;11.82;99.65
21520;BME280;10921;53.614;9.882;2023-02-17T08:03:38;100826.25;;;11.80;99.64
21520;BME280;10921;53.614;9.882;2023-02-17T08:06:09;100806.69;;;11.80;99.90
21520;BME280;10921;53.614;9.882;2023-02-17T08:08:36;100817.53;;;11.78;99.75
21520;BME280;10921;53.614;9.882;2023-02-17T08:11:21;100799.66;;;11.79;99.78
21520;BME280;10921;53.614;9.882;2023-02-17T08:14:15;100801.34;;;11.80;99.94
21520;BME280;10921;53.614;9.882;2023-02-17T08:16:42;100786.19;;;11.71;99.63
21520;BME280;10921;53.614;9.882;2023-02-17T08:19:08;100797.66;;;11.81;99.71
21520;BME280;10921;53.614;9.882;2023-02-17T08:21:35;100768.44;;;11.70;99.71
21520;BME280;10921;53.614;9.882;2023-02-17T08:24:01;100734.22;;;11.55;99.54
21520;BME280;10921;53.614;9.882;2023-02-17T08:26:28;100743.78;;;11.58;99.92
21520;BME280;10921;53.614;9.882;2023-02-17T08:28:55;100783.84;;;11.85;99.51
21520;BME280;10921;53.614;9.882;2023-02-17T08:31:28;100783.03;;;11.85;99.71
21520;BME280;10921;53.614;9.882;2023-02-17T08:33:56;100762.06;;;11.80;99.34
21520;BME280;10921;53.614;9.882;2023-02-17T08:36:23;100764.75;;;11.80;99.36
21520;BME280;10921;53.614;9.882;2023-02-17T08:38:51;100770.34;;;11.87;99.13
21520;BME280;10921;53.614;9.882;2023-02-17T08:41:21;100765.00;;;11.87;99.32
21520;BME280;10921;53.614;9.882;2023-02-17T08:43:49;100756.19;;;11.77;99.15
21520;BME280;10921;53.614;9.882;2023-02-17T08:46:18;100744.34;;;11.79;99.42
21520;BME280;10921;53.614;9.882;2023-02-17T08:48:45;100689.34;;;11.77;99.68
21520;BME280;10921;53.614;9.882;2023-02-17T08:51:19;100768.00;;;11.74;100.00
21520;BME280;10921;53.614;9.882;2023-02-17T08:53:53;100770.94;;;11.81;99.72
21520;BME280;10921;53.614;9.882;2023-02-17T08:56:21;100770.50;;;11.85;99.60
21520;BME280;10921;53.614;9.882;2023-02-17T08:58:48;100780.38;;;11.75;99.88
21520;BME280;10921;53.614;9.882;2023-02-17T09:01:15;100762.56;;;11.76;100.00
21520;BME280;10921;53.614;9.882;2023-02-17T09:03:45;100785.16;;;11.81;100.00
21520;BME280;10921;53.614;9.882;2023-02-17T09:06:12;100763.31;;;11.86;99.93
21520;BME280;10921;53.614;9.882;2023-02-17T09:08:42;100760.50;;;11.87;100.00
21520;BME280;10921;53.614;9.882;2023-02-17T09:11:11;100761.09;;;11.81;100.00
21520;BME280;10921;53.614;9.882;2023-02-17T09:13:40;100757.13;;;11.85;100.00
21520;BME280;10921;53.614;9.882;2023-02-17T09:16:07;100753.59;;;11.85;100.00
21520;BME280;10921;53.614;9.882;2023-02-17T09:18:34;100744.59;;;11.86;100.00
21520;BME280;10921;53.614;9.882;2023-02-17T09:21:10;100732.97;;;11.77;100.00
21520;BME280;10921;53.614;9.882;2023-02-17T09:23:38;100740.94;;;11.87;100.00
21520;BME280;10921;53.614;9.882;2023-02-17T09:26:09;100717.75;;;11.78;100.00
21520;BME280;10921;53.614;9.882;2023-02-17T09:28:37;100720.69;;;11.84;100.00
21520;BME280;10921;53.614;9.882;2023-02-17T09:31:21;100666.44;;;11.56;100.00
21520;BME280;10921;53.614;9.882;2023-02-17T09:33:50;100696.63;;;11.84;100.00
21520;BME280;10921;53.614;9.882;2023-02-17T09:36:28;100699.53;;;11.91;100.00
21520;BME280;10921;53.614;9.882;2023-02-17T09:38:56;100708.84;;;11.87;100.00
21520;BME280;10921;53.614;9.882;2023-02-17T09:41:28;100710.53;;;11.88;100.00
21520;BME280;10921;53.614;9.882;2023-02-17T09:43:57;100702.38;;;11.89;100.00
21520;BME280;10921;53.614;9.882;2023-02-17T09:46:36;100681.47;;;11.93;100.00
21520;BME280;10921;53.614;9.882;2023-02-17T09:49:20;100691.53;;;11.91;100.00
21520;BME280;10921;53.614;9.882;2023-02-17T09:51:52;100691.56;;;11.99;100.00
21520;BME280;10921;53.614;9.882;2023-02-17T09:54:39;100696.06;;;11.98;100.00
21520;BME280;10921;53.614;9.882;2023-02-17T09:57:12;100686.69;;;11.94;100.00
21520;BME280;10921;53.614;9.882;2023-02-17T09:59:44;100694.25;;;11.99;100.00
21520;BME280;10921;53.614;9.882;2023-02-17T10:02:38;100717.03;;;12.03;100.00
21520;BME280;10921;53.614;9.882;2023-02-17T10:05:08;100723.22;;;12.04;100.00
21520;BME280;10921;53.614;9.882;2023-02-17T10:07:48;100679.09;;;11.72;100.00
21520;BME280;10921;53.614;9.882;2023-02-17T10:10:24;100730.53;;;12.02;100.00
21520;BME280;10921;53.614;9.882;2023-02-17T10:12:57;100712.38;;;12.05;100.00
21520;BME280;10921;53.614;9.882;2023-02-17T10:15:29;100720.53;;;12.04;100.00
21520;BME280;10921;53.614;9.882;2023-02-17T10:18:21;100728.16;;;11.98;100.00
21520;BME280;10921;53.614;9.882;2023-02-17T10:20:59;100710.06;;;11.92;100.00
21520;BME280;10921;53.614;9.882;2023-02-17T10:23:28;100758.81;;;12.04;100.00
21520;BME280;10921;53.614;9.882;2023-02-17T10:31:27;100725.41;;;12.08;100.00
21520;BME280;10921;53.614;9.882;2023-02-17T10:34:04;100714.06;;;11.88;100.00
21520;BME280;10921;53.614;9.882;2023-02-17T10:36:59;100739.56;;;12.18;100.00
21520;BME280;10921;53.614;9.882;2023-02-17T10:39:39;100731.97;;;12.14;100.00
21520;BME280;10921;53.614;9.882;2023-02-17T10:42:20;100689.03;;;12.15;100.00
21520;BME280;10921;53.614;9.882;2023-02-17T10:44:48;100712.81;;;12.18;100.00
21520;BME280;10921;53.614;9.882;2023-02-17T10:47:17;100709.06;;;12.11;100.00
21520;BME280;10921;53.614;9.882;2023-02-17T10:49:47;100712.81;;;12.18;100.00
21520;BME280;10921;53.614;9.882;2023-02-17T10:52:17;100696.75;;;12.18;100.00
21520;BME280;10921;53.614;9.882;2023-02-17T10:54:57;100684.72;;;12.22;100.00
21520;BME280;10921;53.614;9.882;2023-02-17T10:57:33;100699.84;;;12.31;100.00
21520;BME280;10921;53.614;9.882;2023-02-17T11:00:00;100689.69;;;12.35;100.00
21520;BME280;10921;53.614;9.882;2023-02-17T11:02:43;100686.78;;;12.28;100.00
21520;BME280;10921;53.614;9.882;2023-02-17T11:05:40;100688.50;;;12.38;100.00
21520;BME280;10921;53.614;9.882;2023-02-17T11:08:43;100673.28;;;12.38;100.00
21520;BME280;10921;53.614;9.882;2023-02-17T11:11:23;100694.03;;;12.36;100.00
21520;BME280;10921;53.614;9.882;2023-02-17T11:16:36;100667.88;;;12.22;100.00
21520;BME280;10921;53.614;9.882;2023-02-17T11:19:04;100704.94;;;12.43;100.00
21520;BME280;10921;53.614;9.882;2023-02-17T11:21:32;100678.34;;;12.41;100.00
21520;BME280;10921;53.614;9.882;2023-02-17T11:24:04;100659.03;;;12.29;100.00
21520;BME280;10921;53.614;9.882;2023-02-17T11:26:33;100685.22;;;12.44;100.00
21520;BME280;10921;53.614;9.882;2023-02-17T11:29:14;100689.13;;;12.49;100.00
21520;BME280;10921;53.614;9.882;2023-02-17T11:31:41;100609.50;;;12.00;100.00
21520;BME280;10921;53.614;9.882;2023-02-17T11:34:13;100678.41;;;12.49;100.00
21520;BME280;10921;53.614;9.882;2023-02-17T11:36:43;100685.75;;;12.47;100.00
21520;BME280;10921;53.614;9.882;2023-02-17T11:39:20;100670.53;;;12.48;100.00
21520;BME280;10921;53.614;9.882;2023-02-17T11:41:47;100613.56;;;12.29;100.00
21520;BME280;10921;53.614;9.882;2023-02-17T11:44:27;100678.09;;;12.52;100.00
21520;BME280;10921;53.614;9.882;2023-02-17T11:53:28;100682.66;;;12.60;100.00
21520;BME280;10921;53.614;9.882;2023-02-17T11:56:18;100645.75;;;12.46;100.00
21520;BME280;10921;53.614;9.882;2023-02-17T12:04:33;100685.53;;;12.66;100.00
21520;BME280;10921;53.614;9.882;2023-02-17T12:13:42;100662.31;;;12.75;100.00
21520;BME280;10921;53.614;9.882;2023-02-17T12:15:57;100664.84;;;12.77;100.00
21520;BME280;10921;53.614;9.882;2023-02-17T12:24:01;100666.53;;;12.86;100.00
21520;BME280;10921;53.614;9.882;2023-02-17T12:32:05;100644.13;;;12.87;100.00
21520;BME280;10921;53.614;9.882;2023-02-17T12:34:41;100656.19;;;12.91;100.00
21520;BME280;10921;53.614;9.882;2023-02-17T12:37:24;100654.88;;;12.95;100.00
21520;BME280;10921;53.614;9.882;2023-02-17T12:42:46;100672.94;;;12.93;100.00
21520;BME280;10921;53.614;9.882;2023-02-17T12:45:20;100613.06;;;12.60;100.00
21520;BME280;10921;53.614;9.882;2023-02-17T12:47:57;100665.38;;;12.88;100.00
21520;BME280;10921;53.614;9.882;2023-02-17T12:50:31;100676.63;;;12.92;100.00
21520;BME280;10921;53.614;9.882;2023-02-17T12:53:03;100670.91;;;12.87;100.00
21520;BME280;10921;53.614;9.882;2023-02-17T12:55:42;100670.13;;;12.94;100.00
21520;BME280;10921;53.614;9.882;2023-02-17T12:58:23;100682.13;;;12.90;100.00
21520;BME280;10921;53.614;9.882;2023-02-17T13:01:02;100673.25;;;12.90;100.00
21520;BME280;10921;53.614;9.882;2023-02-17T13:03:34;100674.25;;;12.89;100.00
21520;BME280;10921;53.614;9.882;2023-02-17T13:06:27;100639.75;;;12.78;100.00
21520;BME280;10921;53.614;9.882;2023-02-17T13:08:59;100676.63;;;12.92;100.00
21520;BME280;10921;53.614;9.882;2023-02-17T13:11:30;100670.75;;;12.88;100.00
21520;BME280;10921;53.614;9.882;2023-02-17T13:14:37;100655.59;;;12.71;100.00
21520;BME280;10921;53.614;9.882;2023-02-17T13:16:55;100687.81;;;12.87;100.00
21520;BME280;10921;53.614;9.882;2023-02-17T13:19:31;100696.38;;;12.91;100.00
21520;BME280;10921;53.614;9.882;2023-02-17T13:21:58;100654.41;;;12.65;100.00
21520;BME280;10921;53.614;9.882;2023-02-17T13:24:33;100677.59;;;12.83;100.00
21520;BME280;10921;53.614;9.882;2023-02-17T13:30:03;100695.22;;;12.93;100.00
21520;BME280;10921;53.614;9.882;2023-02-17T13:32:33;100687.19;;;12.93;100.00
21520;BME280;10921;53.614;9.882;2023-02-17T13:35:02;100679.31;;;12.92;100.00
21520;BME280;10921;53.614;9.882;2023-02-17T13:40:00;100637.69;;;12.72;100.00
21520;BME280;10921;53.614;9.882;2023-02-17T13:42:38;100681.84;;;13.01;100.00
21520;BME280;10921;53.614;9.882;2023-02-17T13:45:32;100678.00;;;13.04;100.00
21520;BME280;10921;53.614;9.882;2023-02-17T13:50:51;100671.13;;;12.93;100.00
21520;BME280;10921;53.614;9.882;2023-02-17T13:53:39;100686.03;;;13.04;100.00
21520;BME280;10921;53.614;9.882;2023-02-17T13:56:10;100713.16;;;13.01;100.00
21520;BME280;10921;53.614;9.882;2023-02-17T13:58:39;100702.25;;;12.94;100.00
21520;BME280;10921;53.614;9.882;2023-02-17T14:01:11;100690.53;;;12.95;100.00
21520;BME280;10921;53.614;9.882;2023-02-17T14:06:12;100705.63;;;12.96;100.00
21520;BME280;10921;53.614;9.882;2023-02-17T14:08:43;100704.94;;;12.94;100.00
21520;BME280;10921;53.614;9.882;2023-02-17T14:11:17;100721.69;;;12.96;100.00
21520;BME280;10921;53.614;9.882;2023-02-17T14:13:46;100701.19;;;12.87;100.00
21520;BME280;10921;53.614;9.882;2023-02-17T14:16:32;100732.41;;;12.96;100.00
21520;BME280;10921;53.614;9.882;2023-02-17T14:19:19;100701.34;;;12.86;100.00